sensor_id;sensor_type;location;lat;lon;timestamp;pressure;altitude;pressure_sealevel;temperature;humidity
70458;BME280;57919;56.194;95.716;2023-01-13T00:05:17;101359.34;;;-23.06;54.14
70458;BME280;57919;56.194;95.716;2023-01-13T00:15:19;101375.50;;;-22.85;54.07
70458;BME280;57919;56.194;95.716;2023-01-13T00:25:21;101373.06;;;-22.84;54.38
70458;BME280;57919;56.194;95.716;2023-01-13T00:35:23;101359.66;;;-22.91;54.35
70458;BME280;57919;56.194;95.716;2023-01-13T00:45:25;101335.41;;;-22.85;54.79
70458;BME280;57919;56.194;95.716;2023-01-13T00:55:30;101343.81;;;-22.64;54.02
70458;BME280;57919;56.194;95.716;2023-01-13T01:05:33;101322.56;;;-22.51;54.80
70458;BME280;57919;56.194;95.716;2023-01-13T01:15:39;101300.28;;;-22.52;54.27
70458;BME280;57919;56.194;95.716;2023-01-13T01:25:41;101310.38;;;-22.32;54.40
70458;BME280;57919;56.194;95.716;2023-01-13T01:35:43;101284.06;;;-22.18;54.47
70458;BME280;57919;56.194;95.716;2023-01-13T01:45:45;101291.31;;;-22.24;54.36
70458;BME280;57919;56.194;95.716;2023-01-13T01:55:47;101259.75;;;-21.88;54.86
70458;BME280;57919;56.194;95.716;2023-01-13T02:05:50;101240.44;;;-21.71;54.70
70458;BME280;57919;56.194;95.716;2023-01-13T02:16:12;101220.53;;;-21.62;54.91
70458;BME280;57919;56.194;95.716;2023-01-13T02:26:59;101209.84;;;-21.32;54.19
70458;BME280;57919;56.194;95.716;2023-01-13T02:37:18;101186.50;;;-21.10;54.12
70458;BME280;57919;56.194;95.716;2023-01-13T02:47:25;101133.06;;;-21.02;53.87
70458;BME280;57919;56.194;95.716;2023-01-13T02:57:29;101150.34;;;-20.61;53.69
70458;BME280;57919;56.194;95.716;2023-01-13T03:18:16;101115.72;;;-20.27;53.33
70458;BME280;57919;56.194;95.716;2023-01-13T03:28:43;101096.69;;;-20.03;53.76
70458;BME280;57919;56.194;95.716;2023-01-13T03:38:52;101101.91;;;-19.60;53.78
70458;BME280;57919;56.194;95.716;2023-01-13T03:48:56;101090.50;;;-19.36;53.40
70458;BME280;57919;56.194;95.716;2023-01-13T03:59:01;101091.97;;;-18.82;52.85
70458;BME280;57919;56.194;95.716;2023-01-13T04:09:15;101042.25;;;-18.64;52.16
70458;BME280;57919;56.194;95.716;2023-01-13T04:19:21;101043.53;;;-18.56;52.25
70458;BME280;57919;56.194;95.716;2023-01-13T04:29:23;100997.84;;;-18.43;52.50
70458;BME280;57919;56.194;95.716;2023-01-13T04:39:25;101019.94;;;-18.17;52.36
70458;BME280;57919;56.194;95.716;2023-01-13T04:49:27;101007.03;;;-18.17;51.99
70458;BME280;57919;56.194;95.716;2023-01-13T04:59:29;100958.69;;;-18.19;52.50
70458;BME280;57919;56.194;95.716;2023-01-13T05:09:31;100938.63;;;-18.09;52.40
70458;BME280;57919;56.194;95.716;2023-01-13T05:19:34;100936.03;;;-17.76;52.52
70458;BME280;57919;56.194;95.716;2023-01-13T05:29:37;100920.81;;;-17.36;52.19
70458;BME280;57919;56.194;95.716;2023-01-13T05:39:39;100897.13;;;-17.10;52.44
70458;BME280;57919;56.194;95.716;2023-01-13T05:50:00;100883.59;;;-16.86;51.84
70458;BME280;57919;56.194;95.716;2023-01-13T06:00:03;100844.91;;;-16.83;52.46
70458;BME280;57919;56.194;95.716;2023-01-13T06:10:13;100847.81;;;-16.39;52.01
70458;BME280;57919;56.194;95.716;2023-01-13T06:20:15;100833.28;;;-16.16;52.36
70458;BME280;57919;56.194;95.716;2023-01-13T06:30:18;100818.00;;;-15.70;52.22
70458;BME280;57919;56.194;95.716;2023-01-13T06:40:20;100795.34;;;-15.10;51.71
70458;BME280;57919;56.194;95.716;2023-01-13T06:50:22;100784.66;;;-14.73;51.82
70458;BME280;57919;56.194;95.716;2023-01-13T07:00:25;100777.09;;;-14.19;52.00
70458;BME280;57919;56.194;95.716;2023-01-13T07:10:28;100748.72;;;-13.35;51.96
70458;BME280;57919;56.194;95.716;2023-01-13T07:20:30;100742.09;;;-12.67;51.57
70458;BME280;57919;56.194;95.716;2023-01-13T07:30:32;100719.72;;;-12.29;51.05
70458;BME280;57919;56.194;95.716;2023-01-13T07:40:35;100707.53;;;-11.97;51.08
70458;BME280;57919;56.194;95.716;2023-01-13T07:50:37;100692.44;;;-11.72;51.58
70458;BME280;57919;56.194;95.716;2023-01-13T08:00:39;100683.44;;;-11.49;51.13
70458;BME280;57919;56.194;95.716;2023-01-13T08:10:42;100684.97;;;-11.21;51.20
70458;BME280;57919;56.194;95.716;2023-01-13T08:20:44;100678.72;;;-10.89;51.56
70458;BME280;57919;56.194;95.716;2023-01-13T08:30:46;100681.13;;;-10.98;52.64
70458;BME280;57919;56.194;95.716;2023-01-13T08:40:48;100667.31;;;-10.92;52.96
70458;BME280;57919;56.194;95.716;2023-01-13T08:50:50;100655.97;;;-10.93;53.06
70458;BME280;57919;56.194;95.716;2023-01-13T09:00:51;100670.47;;;-10.66;52.71
70458;BME280;57919;56.194;95.716;2023-01-13T09:10:54;100659.50;;;-10.49;52.80
70458;BME280;57919;56.194;95.716;2023-01-13T09:20:57;100658.97;;;-10.31;52.91
70458;BME280;57919;56.194;95.716;2023-01-13T09:31:00;100677.47;;;-10.19;52.26
70458;BME280;57919;56.194;95.716;2023-01-13T09:41:02;100666.88;;;-9.75;51.94
70458;BME280;57919;56.194;95.716;2023-01-13T09:51:35;100676.78;;;-9.57;49.86
70458;BME280;57919;56.194;95.716;2023-01-13T10:01:59;100666.53;;;-9.96;49.80
70458;BME280;57919;56.194;95.716;2023-01-13T10:12:05;100675.75;;;-10.17;50.66
70458;BME280;57919;56.194;95.716;2023-01-13T10:32:59;100673.09;;;-10.21;51.54
70458;BME280;57919;56.194;95.716;2023-01-13T10:43:05;100671.06;;;-10.36;51.94
70458;BME280;57919;56.194;95.716;2023-01-13T10:53:23;100670.00;;;-10.46;52.38
70458;BME280;57919;56.194;95.716;2023-01-13T11:03:36;100662.53;;;-10.71;53.29
70458;BME280;57919;56.194;95.716;2023-01-13T11:13:42;100678.31;;;-10.66;53.42
70458;BME280;57919;56.194;95.716;2023-01-13T11:24:11;100652.00;;;-10.74;53.25
70458;BME280;57919;56.194;95.716;2023-01-13T11:34:36;100673.16;;;-10.62;53.86
70458;BME280;57919;56.194;95.716;2023-01-13T11:55:19;100680.03;;;-10.67;54.32
70458;BME280;57919;56.194;95.716;2023-01-13T12:05:39;100632.38;;;-10.97;54.66
70458;BME280;57919;56.194;95.716;2023-01-13T12:16:20;100666.59;;;-10.85;56.21
70458;BME280;57919;56.194;95.716;2023-01-13T12:26:24;100665.66;;;-10.89;57.22
70458;BME280;57919;56.194;95.716;2023-01-13T12:36:54;100665.31;;;-10.62;57.08
70458;BME280;57919;56.194;95.716;2023-01-13T12:46:54;100657.44;;;-10.65;57.55
70458;BME280;57919;56.194;95.716;2023-01-13T12:56:57;100651.25;;;-10.23;57.51
70458;BME280;57919;56.194;95.716;2023-01-13T13:07:09;100659.63;;;-9.91;56.96
70458;BME280;57919;56.194;95.716;2023-01-13T13:48:29;100628.19;;;-9.94;57.03
70458;BME280;57919;56.194;95.716;2023-01-13T13:58:32;100588.44;;;-10.25;57.50
70458;BME280;57919;56.194;95.716;2023-01-13T14:08:38;100609.44;;;-10.22;57.37
70458;BME280;57919;56.194;95.716;2023-01-13T14:18:46;100575.72;;;-10.55;57.87
70458;BME280;57919;56.194;95.716;2023-01-13T14:28:48;100594.81;;;-10.59;57.81
70458;BME280;57919;56.194;95.716;2023-01-13T14:49:10;100583.19;;;-10.74;58.06
70458;BME280;57919;56.194;95.716;2023-01-13T14:59:42;100580.50;;;-10.31;58.15
70458;BME280;57919;56.194;95.716;2023-01-13T15:09:44;100585.28;;;-10.55;58.14
70458;BME280;57919;56.194;95.716;2023-01-13T15:19:46;100577.97;;;-10.73;58.37
70458;BME280;57919;56.194;95.716;2023-01-13T15:29:50;100583.25;;;-10.71;58.30
70458;BME280;57919;56.194;95.716;2023-01-13T15:39:52;100581.38;;;-10.79;57.89
70458;BME280;57919;56.194;95.716;2023-01-13T15:49:54;100581.84;;;-10.98;58.80
70458;BME280;57919;56.194;95.716;2023-01-13T16:00:00;100561.25;;;-11.26;58.90
70458;BME280;57919;56.194;95.716;2023-01-13T16:10:04;100589.19;;;-11.22;59.57
70458;BME280;57919;56.194;95.716;2023-01-13T16:20:12;100599.59;;;-11.24;60.07
70458;BME280;57919;56.194;95.716;2023-01-13T16:40:29;100580.13;;;-11.39;60.49
70458;BME280;57919;56.194;95.716;2023-01-13T16:50:40;100593.69;;;-11.56;61.61
70458;BME280;57919;56.194;95.716;2023-01-13T17:00:43;100592.66;;;-11.62;60.71
70458;BME280;57919;56.194;95.716;2023-01-13T17:10:47;100568.47;;;-11.94;58.51
70458;BME280;57919;56.194;95.716;2023-01-13T17:20:51;100606.56;;;-11.63;55.61
70458;BME280;57919;56.194;95.716;2023-01-13T17:30:53;100600.94;;;-11.82;55.93
70458;BME280;57919;56.194;95.716;2023-01-13T17:41:00;100605.06;;;-11.91;55.89
70458;BME280;57919;56.194;95.716;2023-01-13T17:51:03;100595.56;;;-11.89;58.60
70458;BME280;57919;56.194;95.716;2023-01-13T18:01:09;100581.59;;;-11.91;58.00
70458;BME280;57919;56.194;95.716;2023-01-13T18:11:12;100594.66;;;-12.26;57.84
70458;BME280;57919;56.194;95.716;2023-01-13T18:21:21;100611.28;;;-12.21;59.04
70458;BME280;57919;56.194;95.716;2023-01-13T18:31:41;100607.13;;;-12.14;59.48
70458;BME280;57919;56.194;95.716;2023-01-13T18:41:43;100587.94;;;-12.16;59.00
70458;BME280;57919;56.194;95.716;2023-01-13T18:52:04;100594.16;;;-12.11;59.17
70458;BME280;57919;56.194;95.716;2023-01-13T19:02:13;100590.31;;;-12.25;59.10
70458;BME280;57919;56.194;95.716;2023-01-13T19:12:16;100581.22;;;-12.41;58.23
70458;BME280;57919;56.194;95.716;2023-01-13T19:22:28;100610.38;;;-12.23;57.52
70458;BME280;57919;56.194;95.716;2023-01-13T19:32:31;100603.78;;;-12.43;58.66
70458;BME280;57919;56.194;95.716;2023-01-13T19:42:34;100602.72;;;-12.50;58.73
70458;BME280;57919;56.194;95.716;2023-01-13T19:52:54;100608.13;;;-12.42;59.34
70458;BME280;57919;56.194;95.716;2023-01-13T20:02:56;100622.91;;;-12.43;60.40
70458;BME280;57919;56.194;95.716;2023-01-13T20:13:03;100626.63;;;-12.33;60.28
70458;BME280;57919;56.194;95.716;2023-01-13T20:23:05;100627.47;;;-12.34;60.98
70458;BME280;57919;56.194;95.716;2023-01-13T20:33:07;100613.88;;;-12.55;60.93
70458;BME280;57919;56.194;95.716;2023-01-13T20:43:09;100629.75;;;-12.46;60.12
70458;BME280;57919;56.194;95.716;2023-01-13T20:53:11;100628.00;;;-12.47;60.07
70458;BME280;57919;56.194;95.716;2023-01-13T21:03:13;100627.56;;;-12.62;60.59
70458;BME280;57919;56.194;95.716;2023-01-13T21:13:15;100640.00;;;-12.52;60.13
70458;BME280;57919;56.194;95.716;2023-01-13T21:23:37;100626.75;;;-12.61;58.98
70458;BME280;57919;56.194;95.716;2023-01-13T21:33:40;100615.94;;;-12.75;58.93
70458;BME280;57919;56.194;95.716;2023-01-13T21:43:42;100631.78;;;-12.67;58.60
70458;BME280;57919;56.194;95.716;2023-01-13T21:54:02;100651.78;;;-12.66;58.85
70458;BME280;57919;56.194;95.716;2023-01-13T22:04:04;100646.22;;;-12.79;59.26
70458;BME280;57919;56.194;95.716;2023-01-13T22:14:12;100633.03;;;-12.85;59.18
70458;BME280;57919;56.194;95.716;2023-01-13T22:24:14;100649.75;;;-12.77;59.45
70458;BME280;57919;56.194;95.716;2023-01-13T22:34:16;100643.25;;;-12.92;59.43
70458;BME280;57919;56.194;95.716;2023-01-13T22:44:19;100670.72;;;-13.02;59.28
70458;BME280;57919;56.194;95.716;2023-01-13T22:54:21;100671.47;;;-13.06;59.32
70458;BME280;57919;56.194;95.716;2023-01-13T23:04:23;100674.44;;;-12.94;58.78
70458;BME280;57919;56.194;95.716;2023-01-13T23:14:25;100659.53;;;-12.99;58.56
70458;BME280;57919;56.194;95.716;2023-01-13T23:24:27;100670.81;;;-12.99;58.95
70458;BME280;57919;56.194;95.716;2023-01-13T23:34:29;100676.16;;;-12.94;59.44
70458;BME280;57919;56.194;95.716;2023-01-13T23:44:31;100698.94;;;-12.87;59.53
70458;BME280;57919;56.194;95.716;2023-01-13T23:54:33;100698.94;;;-12.87;59.49
